Terminal Aerodrome Forecast
Issued by NWS

Home | Current Version | Previous Version | Text Only | Print | Product List | Glossary On
Versions: 1 2 3 4 5 6 7 8 9 10 11 12 13 14 15 16 17 18 19 20 21 22 23 24 25 26 27 28 29 30 31 32 33 34 35
000
FTUS43 KDTX 020300 AAA
TAFPTK
TAF AMD
KPTK 020331Z 0204/0224 15004KT 5SM BR BKN007
     FM020600 15003KT 3SM BR SCT007 BKN015
     FM020800 16004KT 1SM BR OVC004
     FM021400 16007KT P6SM BKN060 BKN150
     FM022100 16010KT P6SM BKN050 OVC100=

USA.gov is the U.S. government's official web portal to all federal, state and local government web resources and services.